Airfield :







YOU CAN JOIN US ON...

 
LOGIN :

Register | Disclaimer

   EN    FR    IT 

 









Legend :    VFR   Marginal VFR   IFR   Intensive IFR   Very Intensive IFR
Visi :
Ceiling :
>= 8 km
>= 3000ft
5 to 8 km
1000 to 3000 ft
1500m to 5 km
500 to 1000 ft
800 to 1500m
200 to 500 ft
< 800m
< 200 ft
Symbols :   Thunderstorms  Fog  Heavy snow  Heavy precipitations  Wind > 20 kt






- Airport Elevation : 9 ft


KPVC - Provincetown Municipal

CURRENT METAR :
  • 171933Z AUTO 08008KT 3SM BR OVC003 21/20 A3025 RMK AO2

EXPIRED METARs :
  • 171917Z AUTO 07007KT 1 3/4SM BR OVC003 21/19 A3025 RMK AO2 VIS 1V3
  • 171856Z AUTO 07007KT 5SM BR OVC003 21/19 A3026 RMK AO2 SLP244 T02060194
  • 171817Z AUTO 07010KT 10SM OVC003 21/19 A3027 RMK AO2
  • 171756Z AUTO 06009KT 10SM OVC005 21/19 A3027 RMK AO2 SLP251 T02110194 10222 20189 58011
  • 171656Z AUTO 05010KT 10SM OVC005 22/19 A3029 RMK AO2 CIG 004V009 SLP258 T02170194

TAF N/A
KZBW FIR / North America



MET'MAP, your aeronautical weather chart ! - Copyright ORBIFLY December 2007 - Disclaimer

ORBIFLY MET'MAP TEAM :

Programming & Development : Alexandra Zaïnal
Concept & original design : Baudouin d'Aumeries
Assistance for programming : Marc-Olivier Méhu
Technical & hardware support : Manuel Goepfert

Contact : metmap@orbifly.com




SOURCES & CREDITS :

   NOAA